KDET/DET METAR and TAF weather

Enter ICAO airport designator
Station Type Date Time Source
KDET METAR 2020/10/20 17:53 UTC NOAA

KDET 201753Z 04009KT 10SM BKN029 12/04 A3029 RMK AO2 SLP259 T01170044 10117 20061 58005


Station Type Date Time Source
KDET Decoded METAR 2020/10/20 17:53 UTC NOAA

DETROIT CITY AIRPORT, MI, United States (KDET) 42-25N 083-01W 190M
Oct 20, 2020 - 01:53 PM EDT / 2020.10.20 1753 UTC
Wind: from the NE (040 degrees) at 10 MPH (9 KT):0
Visibility: 10 mile(s):0
Sky conditions: mostly cloudy
Temperature: 53.1 F (11.7 C)
Dew Point: 39.9 F (4.4 C)
Relative Humidity: 60%
Pressure (altimeter): 30.29 in. Hg (1025 hPa)
Pressure tendency: 0.01 inches (0.5 hPa) lower than three hours ago
ob: KDET 201753Z 04009KT 10SM BKN029 12/04 A3029 RMK AO2 SLP259 T01170044 10117 20061 58005
cycle: 18

Station Type Date Time Source
KDET TAF 2020/10/20 18:54 UTC NOAA

TAF KDET 201750Z 2018/2118 08007KT P6SM SCT030 BKN200
FM210000 11007KT P6SM SCT008 OVC025
FM210300 14012KT 4SM -RA BR SCT003 OVC005
TEMPO 2105/2108 2SM -TSRA BR OVC005CB
FM211100 24011G25KT 5SM BR SCT008 BKN012
FM211600 27012G22KT P6SM SCT020 SCT150

Example: see airport list